Olivehill, Tennessee
Current Conditions -  °F | °C
As of 10:35 AM on Friday 31 Oct 2014 (Local Time) from KSNH Reporting Station
Few Clouds Few Clouds  
Wind Chill: 55°   Ceiling: Unl
Heat Index: 55°   Visibility: 10mi
Dew Point: 52°   Wind: 7mph
Humidity: 88%   Direction: 340°NNW
Pressure: 30.05"   Gusts: NA
Location:  35.27°N, 88.03°W
Report Text: KSNH 311535Z AUTO 34006KT 10SM FEW080 13/11 A3005 RMK
Loading
Personal Weather Stations






























Interactive Weather Map
Tropical Storm Tracking
New forecast layout! Learn more

10-Day Weather Forecast

Advertisements
Track Severe Weather on mobile